Intraitable — FM6707 — position and weather

sailwx.info

Track history (hours):
 
Tides and Currents Weather Stations Pressure Air Temp Water Temp Dewpoint Dewpoint Depression Visibility Wind Speed Wind Dir Waves Ship Positions

Intraitable

Last reported at 2018-Jun-25 14:00 UTC. Time now 2018-Jun-25 14:16 UTC.
Position N 47°12' W 001°37'.

Length 130 m.

Type: Cargo ship. MMSI: 226002760.

Date/timePositionNaut miles runAvg speedWind from/ knotsBaromVisibWave heightAir tempDewpointWater temp
2018-Jun-25 14:00N 47°12' W 001°37'0 0.0
2018-Jun-25 13:30N 47°12' W 001°37'0 0.0
2018-Jun-25 12:59N 47°12' W 001°37'0 0.1
2018-Jun-25 12:30N 47°12' W 001°37'4 7.5
2018-Jun-25 12:00N 47°12' W 001°42'4 8.0
2018-Jun-25 11:30N 47°13' W 001°48'4 7.9
2018-Jun-25 11:00N 47°16' W 001°52'2 3.0
2018-Jun-25 10:30N 47°17' W 001°53'0 0.0
2018-Jun-25 10:00N 47°17' W 001°53'0 0.1
2018-Jun-25 09:29N 47°17' W 001°53'0 0.0
2018-Jun-23 09:55N 47°17' W 001°53'0 0.3
2018-Jun-23 09:30N 47°17' W 001°53'1 1.5
2018-Jun-23 09:01N 47°17' W 001°55'4 7.9
2018-Jun-23 08:30N 47°17' W 002°00'4 7.6
2018-Jun-23 08:01N 47°18' W 002°06'3 5.7
2018-Jun-23 07:29N 47°17' W 002°10'0 0.0
2018-Jun-23 06:56N 47°17' W 002°10'0 0.0
2018-Jun-23 06:30N 47°17' W 002°10'0 0.0
2018-Jun-23 06:00N 47°17' W 002°10'0 0.0
2018-Jun-23 05:29N 47°17' W 002°10'0 0.0
2018-Jun-23 05:00N 47°17' W 002°10'0 0.0
2018-Jun-23 04:30N 47°17' W 002°10'0 0.0
2018-Jun-23 04:00N 47°17' W 002°10'0 0.0
2018-Jun-23 03:30N 47°17' W 002°10'0 0.0
2018-Jun-23 03:00N 47°17' W 002°10'0 0.0
2018-Jun-23 02:30N 47°17' W 002°10'0 0.0
2018-Jun-23 02:00N 47°17' W 002°10'0 0.0
2018-Jun-23 01:30N 47°17' W 002°10'0 0.0
2018-Jun-23 01:00N 47°17' W 002°10'0 0.0
2018-Jun-23 00:30N 47°17' W 002°10'0 0.0
2018-Jun-23 00:00N 47°17' W 002°10'0 0.0
2018-Jun-22 23:30N 47°17' W 002°10'0 0.0
2018-Jun-22 23:00N 47°17' W 002°10'0 0.0
2018-Jun-22 22:30N 47°17' W 002°10'0 0.0
2018-Jun-22 22:00N 47°17' W 002°10'0 0.0
2018-Jun-22 21:30N 47°17' W 002°10'0 0.0
2018-Jun-22 21:00N 47°17' W 002°10'0 0.0
2018-Jun-22 20:30N 47°17' W 002°10'0 0.0
2018-Jun-22 20:00N 47°17' W 002°10'0 0.0
2018-Jun-22 19:30N 47°17' W 002°10'0 0.0
2018-Jun-22 19:00N 47°17' W 002°10'0 0.0
2018-Jun-22 18:30N 47°17' W 002°10'0 0.0
2018-Jun-22 18:00N 47°17' W 002°10'0 0.0
2018-Jun-22 17:30N 47°17' W 002°10'0 0.0
2018-Jun-22 17:00N 47°17' W 002°10'0 1.0
2018-Jun-22 16:30N 47°18' W 002°09'5 9.5
2018-Jun-22 16:01N 47°18' W 002°02'5 9.4
2018-Jun-22 15:30N 47°17' W 001°56'4 8.3
2018-Jun-22 15:01N 47°15' W 001°51'4 7.5
2018-Jun-22 14:30N 47°12' W 001°46'4 7.6
2018-Jun-22 14:00N 47°12' W 001°41'3 5.3
2018-Jun-22 13:30N 47°12' W 001°37'0 0.1
2018-Jun-22 13:01N 47°12' W 001°37'0 0.0
2018-Jun-22 12:30N 47°12' W 001°37'0 0.0
2018-Jun-22 12:00N 47°12' W 001°37'0 0.0
2018-Jun-22 11:30N 47°12' W 001°37'0 0.0
2018-Jun-22 11:00N 47°12' W 001°37'0 0.0
2018-Jun-22 10:30N 47°12' W 001°37'0 0.1
2018-Jun-22 10:01N 47°12' W 001°37'4 7.3
2018-Jun-22 09:30N 47°12' W 001°42'4 7.6
2018-Jun-22 08:59N 47°13' W 001°48'4 7.8
2018-Jun-22 08:31N 47°16' W 001°51'2 3.6
2018-Jun-22 08:00N 47°17' W 001°53'0 0.0
2018-Jun-22 07:31N 47°17' W 001°53'0 0.0
2018-Jun-22 07:00N 47°17' W 001°53'0 0.0
2018-Jun-22 06:29N 47°17' W 001°53'0 0.0
2018-Jun-22 06:00N 47°17' W 001°53'0 0.0
2018-Jun-22 05:31N 47°17' W 001°53'0 0.0
2018-Jun-22 05:00N 47°17' W 001°53'0 0.0
2018-Jun-22 04:30N 47°17' W 001°53'0 0.0
2018-Jun-22 04:01N 47°17' W 001°53'0 0.0
2018-Jun-22 03:31N 47°17' W 001°53'0 0.0
2018-Jun-22 03:00N 47°17' W 001°53'0 0.0
2018-Jun-22 02:30N 47°17' W 001°53'0 0.0
2018-Jun-22 02:00N 47°17' W 001°53'0 0.0
2018-Jun-22 01:30N 47°17' W 001°53'0 0.0
2018-Jun-22 01:00N 47°17' W 001°53'0 0.0
2018-Jun-22 00:30N 47°17' W 001°53'0 0.0
2018-Jun-22 00:00N 47°17' W 001°53'0 0.0
2018-Jun-21 23:30N 47°17' W 001°53'0 0.0
2018-Jun-21 23:00N 47°17' W 001°53'0 0.0
2018-Jun-21 22:30N 47°17' W 001°53'0 0.0
2018-Jun-21 22:01N 47°17' W 001°53'0 0.0
2018-Jun-21 21:31N 47°17' W 001°53'0 0.0
2018-Jun-21 21:00N 47°17' W 001°53'0 0.0
2018-Jun-21 20:31N 47°17' W 001°53'0 0.0
2018-Jun-21 20:00N 47°17' W 001°53'0 0.0
2018-Jun-21 19:30N 47°17' W 001°53'0 0.0
2018-Jun-21 19:01N 47°17' W 001°53'0 0.0
2018-Jun-21 18:31N 47°17' W 001°53'0 0.0
2018-Jun-21 18:00N 47°17' W 001°53'0 0.0
2018-Jun-21 17:30N 47°17' W 001°53'0 0.0
2018-Jun-21 17:00N 47°17' W 001°53'0 0.0
2018-Jun-21 16:31N 47°17' W 001°53'0 0.0
2018-Jun-21 16:00N 47°17' W 001°53'0 0.0
2018-Jun-21 15:30N 47°17' W 001°53'0 0.0
2018-Jun-21 15:00N 47°17' W 001°53'0 0.0
2018-Jun-21 14:31N 47°17' W 001°53'0 0.0
2018-Jun-21 14:01N 47°17' W 001°53'0 0.0
2018-Jun-21 13:29N 47°17' W 001°53'0 0.0
2018-Jun-21 13:00N 47°17' W 001°53'0 0.0
2018-Jun-21 12:30N 47°17' W 001°53'0 0.0
2018-Jun-21 11:59N 47°17' W 001°53'0 0.0
2018-Jun-21 11:30N 47°17' W 001°53'0 0.0
2018-Jun-21 11:00N 47°17' W 001°53'0 0.0
2018-Jun-21 10:30N 47°17' W 001°53'0 0.0
2018-Jun-21 10:00N 47°17' W 001°53'0 0.0
2018-Jun-21 09:28N 47°17' W 001°53'0 0.0
2018-Jun-21 09:01N 47°17' W 001°53'0 0.0
2018-Jun-21 08:31N 47°17' W 001°53'0 0.0
2018-Jun-21 08:01N 47°17' W 001°53'0 0.0
2018-Jun-21 07:31N 47°17' W 001°53'1 2.1
2018-Jun-21 07:00N 47°17' W 001°55'3 6.7
2018-Jun-21 06:30N 47°17' W 001°60'2 3.8
2018-Jun-21 06:00N 47°18' W 002°03'3 7.0
2018-Jun-21 05:30N 47°18' W 002°08'2 3.7
2018-Jun-21 05:00N 47°17' W 002°10'0 0.0
2018-Jun-21 04:30N 47°17' W 002°10'0 0.0
2018-Jun-21 04:00N 47°17' W 002°10'0 0.0
2018-Jun-21 03:30N 47°17' W 002°10'0 0.0
2018-Jun-21 03:00N 47°17' W 002°10'0 0.0
2018-Jun-21 02:30N 47°17' W 002°10'0 0.0
2018-Jun-21 02:00N 47°17' W 002°10'0 0.0
2018-Jun-21 01:31N 47°17' W 002°10'0 0.0
2018-Jun-21 01:01N 47°17' W 002°10'0 0.0
2018-Jun-21 00:31N 47°17' W 002°10'0 0.0
2018-Jun-21 00:01N 47°17' W 002°10'0 0.0
2018-Jun-20 23:31N 47°17' W 002°10'0 0.0
2018-Jun-20 23:01N 47°17' W 002°10'0 0.0
2018-Jun-20 22:31N 47°17' W 002°10'0 0.0
2018-Jun-20 22:00N 47°17' W 002°10'0 0.0
2018-Jun-20 21:31N 47°17' W 002°10'0 0.0
2018-Jun-20 21:01N 47°17' W 002°10'0 0.0
2018-Jun-20 20:30N 47°17' W 002°10'0 0.0
2018-Jun-20 20:00N 47°17' W 002°10'0 0.0
2018-Jun-20 19:30N 47°17' W 002°10'0 0.0
2018-Jun-20 19:00N 47°17' W 002°10'0 0.0
2018-Jun-20 18:30N 47°17' W 002°10'0 0.0
2018-Jun-20 18:00N 47°17' W 002°10'0 0.0
2018-Jun-20 17:30N 47°17' W 002°10'0 0.0
2018-Jun-20 17:00N 47°17' W 002°10'2 3.0
2018-Jun-20 16:30N 47°18' W 002°08'3 6.6
2018-Jun-20 16:01N 47°18' W 002°03'5 8.5
2018-Jun-20 15:24N 47°17' W 001°56'3 8.3
2018-Jun-20 15:00N 47°16' W 001°51'4 8.2
2018-Jun-20 14:31N 47°13' W 001°48'4 8.3
2018-Jun-20 14:00N 47°12' W 001°41'3 6.2
2018-Jun-20 13:28N 47°12' W 001°37'0 0.0
2018-Jun-20 13:00N 47°12' W 001°37'0 0.0
2018-Jun-20 12:30N 47°12' W 001°37'0 0.0
2018-Jun-20 12:00N 47°12' W 001°37'0 0.0
2018-Jun-20 11:30N 47°12' W 001°37'0 0.0
2018-Jun-20 10:58N 47°12' W 001°37'0 0.0
2018-Jun-20 10:31N 47°12' W 001°37'0 0.0
2018-Jun-20 10:00N 47°12' W 001°37'0 0.0
2018-Jun-20 09:30N 47°12' W 001°37'0 0.0
2018-Jun-20 09:00N 47°12' W 001°37'2 2.7
2018-Jun-20 08:26N 47°11' W 001°39'3 6.3
2018-Jun-20 08:00N 47°12' W 001°43'3 6.8
2018-Jun-20 07:31N 47°13' W 001°48'3 6.8
2018-Jun-20 07:01N 47°15' W 001°51'4 7.1
2018-Jun-20 06:30N 47°17' W 001°56'4 7.9
2018-Jun-20 06:01N 47°18' W 002°01'4 7.5
2018-Jun-20 05:30N 47°18' W 002°07'2 4.7
2018-Jun-20 04:59N 47°17' W 002°10'0 0.0
2018-Jun-20 04:30N 47°17' W 002°10'0 0.0
2018-Jun-20 04:00N 47°17' W 002°10'0 0.0
2018-Jun-20 03:30N 47°17' W 002°10'0 0.0
2018-Jun-20 03:00N 47°17' W 002°10'0 0.0
2018-Jun-20 02:31N 47°17' W 002°10'0 0.0
2018-Jun-20 02:00N 47°17' W 002°10'0 0.0
2018-Jun-20 01:31N 47°17' W 002°10'0 0.0
2018-Jun-20 01:01N 47°17' W 002°10'0 0.0
2018-Jun-20 00:30N 47°17' W 002°10'0 0.0
2018-Jun-20 00:00N 47°17' W 002°10'0 0.0
2018-Jun-19 23:31N 47°17' W 002°10'0 0.0
2018-Jun-19 23:00N 47°17' W 002°10'0 0.0
2018-Jun-19 22:31N 47°17' W 002°10'0 0.0
2018-Jun-19 22:00N 47°17' W 002°10'0 0.0
2018-Jun-19 21:31N 47°17' W 002°10'0 0.0
2018-Jun-19 21:01N 47°17' W 002°10'0 0.0
2018-Jun-19 20:30N 47°17' W 002°10'0 0.0
2018-Jun-19 20:01N 47°17' W 002°10'0 0.0
2018-Jun-19 19:30N 47°17' W 002°10'0 0.0
2018-Jun-19 19:01N 47°17' W 002°10'0 0.0
2018-Jun-19 18:31N 47°17' W 002°10'0 0.0
2018-Jun-19 18:00N 47°17' W 002°10'0 0.0
2018-Jun-19 17:30N 47°17' W 002°10'0 0.0
2018-Jun-19 17:00N 47°17' W 002°10'0 0.0
2018-Jun-19 16:30N 47°17' W 002°10'2 4.3
2018-Jun-19 15:58N 47°18' W 002°07'3 6.1
2018-Jun-19 15:29N 47°18' W 002°03'4 7.9
2018-Jun-19 15:00N 47°17' W 001°57'4 8.2
2018-Jun-19 14:29N 47°16' W 001°51'4 8.4
2018-Jun-19 14:00N 47°13' W 001°47'4 8.5
2018-Jun-19 13:30N 47°12' W 001°41'3 6.3
2018-Jun-19 13:00N 47°12' W 001°37'0 0.0
2018-Jun-19 12:31N 47°12' W 001°37'0 0.0
2018-Jun-19 12:00N 47°12' W 001°37'0 0.0
2018-Jun-19 11:30N 47°12' W 001°37'0 0.0
2018-Jun-19 11:00N 47°12' W 001°37'0 0.0
2018-Jun-19 10:31N 47°12' W 001°37'0 0.0
2018-Jun-19 10:00N 47°12' W 001°37'0 0.0
2018-Jun-19 09:30N 47°12' W 001°37'1 2.2
2018-Jun-19 09:00N 47°12' W 001°38'2 4.4
2018-Jun-19 08:31N 47°12' W 001°41'3 5.0
2018-Jun-19 08:00N 47°12' W 001°45'3 5.9
2018-Jun-19 07:30N 47°13' W 001°49'3 6.2
2018-Jun-19 07:00N 47°16' W 001°52'3 6.8
2018-Jun-19 06:31N 47°17' W 001°56'4 7.1
2018-Jun-19 06:00N 47°18' W 002°01'4 7.6
2018-Jun-19 05:30N 47°18' W 002°07'2 4.3
2018-Jun-19 05:01N 47°17' W 002°10'0 0.0
2018-Jun-19 04:30N 47°17' W 002°10'0 0.0
2018-Jun-19 04:01N 47°17' W 002°10'0 0.0
2018-Jun-19 03:30N 47°17' W 002°10'0 0.0
2018-Jun-19 03:00N 47°17' W 002°10'0 0.0
2018-Jun-19 02:30N 47°17' W 002°10'0 0.0
2018-Jun-19 02:00N 47°17' W 002°10'0 0.0
2018-Jun-19 01:31N 47°17' W 002°10'0 0.0
2018-Jun-19 01:00N 47°17' W 002°10'0 0.0
2018-Jun-19 00:30N 47°17' W 002°10'0 0.0
2018-Jun-19 00:01N 47°17' W 002°10'0 0.0
2018-Jun-18 23:31N 47°17' W 002°10'0 0.0
2018-Jun-18 23:01N 47°17' W 002°10'0 0.0
2018-Jun-18 22:31N 47°17' W 002°10'0 0.0
2018-Jun-18 22:01N 47°17' W 002°10'0 0.0
2018-Jun-18 21:30N 47°17' W 002°10'0 0.0
2018-Jun-18 21:01N 47°17' W 002°10'0 0.0
2018-Jun-18 20:31N 47°17' W 002°10'0 0.0
2018-Jun-18 20:00N 47°17' W 002°10'0 0.0
2018-Jun-18 19:30N 47°17' W 002°10'0 0.0
2018-Jun-18 19:00N 47°17' W 002°10'0 0.0
2018-Jun-18 18:30N 47°17' W 002°10'0 0.0
2018-Jun-18 18:00N 47°17' W 002°10'0 0.0
2018-Jun-18 17:31N 47°17' W 002°10'0 0.0
2018-Jun-18 17:01N 47°17' W 002°10'2 3.9
2018-Jun-18 16:31N 47°18' W 002°07'2 4.5
2018-Jun-18 16:00N 47°18' W 002°04'3 5.3
2018-Jun-18 15:30N 47°17' W 002°00'4 7.2
2018-Jun-18 15:01N 47°17' W 001°55'4 8.6
2018-Jun-18 14:31N 47°14' W 001°50'5 9.3
2018-Jun-18 14:00N 47°12' W 001°44'5 9.5
2018-Jun-18 13:30N 47°12' W 001°37'0 0.4
2018-Jun-18 13:00N 47°12' W 001°37'0 0.0
2018-Jun-18 12:30N 47°12' W 001°37'0 0.0
2018-Jun-18 12:00N 47°12' W 001°37'0 0.0
2018-Jun-18 11:30N 47°12' W 001°37'0 0.0
2018-Jun-18 11:01N 47°12' W 001°37'0 0.0
2018-Jun-18 10:30N 47°12' W 001°37'0 0.0
2018-Jun-18 10:00N 47°12' W 001°37'0 0.0
2018-Jun-18 09:30N 47°12' W 001°37'0 0.0
2018-Jun-18 09:01N 47°12' W 001°37'0 0.0
2018-Jun-18 08:30N 47°12' W 001°37'0 0.0
2018-Jun-18 08:01N 47°12' W 001°37'0 0.0
2018-Jun-18 07:31N 47°12' W 001°37'0 0.0
2018-Jun-18 07:00N 47°12' W 001°37'0 0.0
2018-Jun-18 06:30N 47°12' W 001°37'0 0.0
2018-Jun-18 06:01N 47°12' W 001°37'0 0.0
2018-Jun-18 05:31N 47°12' W 001°37'0 0.0
2018-Jun-18 05:01N 47°12' W 001°37'0 0.0
2018-Jun-18 04:30N 47°12' W 001°37'0 0.0
2018-Jun-18 04:01N 47°12' W 001°37'0 0.0
2018-Jun-18 03:31N 47°12' W 001°37'0 0.0
2018-Jun-18 03:00N 47°12' W 001°37'0 0.0
2018-Jun-18 02:31N 47°12' W 001°37'0 0.0
2018-Jun-18 02:01N 47°12' W 001°37'0 0.0
2018-Jun-18 01:30N 47°12' W 001°37'0 0.0
2018-Jun-18 00:59N 47°12' W 001°37'0 0.0
2018-Jun-18 00:30N 47°12' W 001°37'0 0.0
2018-Jun-18 00:00N 47°12' W 001°37'0 0.0
2018-Jun-17 23:31N 47°12' W 001°37'0 0.0
2018-Jun-17 23:00N 47°12' W 001°37'0 0.0
2018-Jun-17 22:31N 47°12' W 001°37'0 0.0
2018-Jun-17 22:00N 47°12' W 001°37'0 0.0
2018-Jun-17 21:30N 47°12' W 001°37'0 0.0
2018-Jun-17 21:00N 47°12' W 001°37'0 0.0
2018-Jun-17 20:31N 47°12' W 001°37'0 0.0
2018-Jun-17 20:01N 47°12' W 001°37'0 0.0
2018-Jun-17 19:30N 47°12' W 001°37'0 0.0
2018-Jun-17 19:01N 47°12' W 001°37'0 0.0
2018-Jun-17 18:31N 47°12' W 001°37'0 0.0
2018-Jun-17 18:00N 47°12' W 001°37'0 0.0
2018-Jun-17 17:30N 47°12' W 001°37'0 0.0
2018-Jun-17 17:00N 47°12' W 001°37'2 4.6
2018-Jun-17 16:31N 47°12' W 001°40'4 7.4
2018-Jun-17 16:00N 47°12' W 001°45'4 7.3
2018-Jun-17 15:30N 47°14' W 001°50'3 6.4
2018-Jun-17 15:00N 47°16' W 001°53'0 0.6
2018-Jun-17 14:30N 47°17' W 001°53'0 0.0
2018-Jun-17 14:00N 47°17' W 001°53'0 0.0
2018-Jun-17 13:30N 47°17' W 001°53'0 0.0
2018-Jun-17 13:00N 47°17' W 001°53'0 0.0
2018-Jun-17 12:31N 47°17' W 001°53'0 0.0
2018-Jun-17 12:00N 47°17' W 001°53'0 0.0
2018-Jun-17 11:31N 47°17' W 001°53'0 0.0
2018-Jun-17 11:01N 47°17' W 001°53'0 0.0
2018-Jun-17 10:30N 47°17' W 001°53'0 0.0
2018-Jun-17 10:00N 47°17' W 001°53'0 0.0
2018-Jun-17 09:30N 47°17' W 001°53'0 0.0
2018-Jun-17 09:00N 47°17' W 001°53'0 0.0
2018-Jun-17 08:30N 47°17' W 001°53'0 0.0
2018-Jun-17 07:25N 47°17' W 001°53'0 0.0
2018-Jun-17 07:01N 47°17' W 001°53'0 0.0
2018-Jun-17 06:31N 47°17' W 001°53'0 0.0
2018-Jun-17 06:00N 47°17' W 001°53'0 0.0
2018-Jun-17 05:30N 47°17' W 001°53'0 0.0
2018-Jun-17 05:01N 47°17' W 001°53'0 0.0
2018-Jun-17 04:31N 47°17' W 001°53'0 0.0
2018-Jun-17 04:01N 47°17' W 001°53'0 0.0
2018-Jun-17 03:31N 47°17' W 001°53'0 0.0
2018-Jun-17 03:01N 47°17' W 001°53'0 0.0
2018-Jun-17 02:30N 47°17' W 001°53'0 0.0
2018-Jun-17 02:01N 47°17' W 001°53'0 0.0
2018-Jun-17 01:30N 47°17' W 001°53'0 0.0
2018-Jun-17 01:01N 47°17' W 001°53'0 0.0
2018-Jun-17 00:30N 47°17' W 001°53'0 0.0
2018-Jun-17 00:01N 47°17' W 001°53'0 0.0
2018-Jun-16 23:31N 47°17' W 001°53'0 0.0
2018-Jun-16 23:01N 47°17' W 001°53'0 0.0
2018-Jun-16 22:31N 47°17' W 001°53'0 0.0
2018-Jun-16 22:00N 47°17' W 001°53'0 0.0
2018-Jun-16 21:31N 47°17' W 001°53'0 0.0
2018-Jun-16 21:00N 47°17' W 001°53'0 0.0
2018-Jun-16 20:30N 47°17' W 001°53'0 0.0
2018-Jun-16 20:01N 47°17' W 001°53'0 0.0
2018-Jun-16 19:31N 47°17' W 001°53'0 0.0
2018-Jun-16 19:01N 47°17' W 001°53'0 0.0
2018-Jun-16 18:30N 47°17' W 001°53'0 0.0
2018-Jun-16 18:00N 47°17' W 001°53'0 0.0
2018-Jun-16 17:30N 47°17' W 001°53'0 0.0
2018-Jun-16 17:00N 47°17' W 001°53'0 0.0
2018-Jun-16 16:30N 47°17' W 001°53'0 0.0
2018-Jun-16 16:01N 47°17' W 001°53'0 0.0
2018-Jun-16 15:30N 47°17' W 001°53'0 0.0
2018-Jun-16 15:00N 47°17' W 001°53'0 0.0
2018-Jun-16 14:30N 47°17' W 001°53'0 0.0
2018-Jun-16 14:01N 47°17' W 001°53'0 0.1
2018-Jun-16 13:30N 47°17' W 001°53'0 0.0
2018-Jun-16 13:00N 47°17' W 001°53'0 0.0
2018-Jun-16 12:30N 47°17' W 001°53'0 0.0
2018-Jun-16 12:00N 47°17' W 001°53'0 0.0
2018-Jun-16 11:30N 47°17' W 001°53'0 0.0
2018-Jun-16 11:00N 47°17' W 001°53'0 0.0
2018-Jun-16 10:31N 47°17' W 001°53'0 0.0
2018-Jun-16 10:00N 47°17' W 001°53'0 0.0
2018-Jun-16 09:30N 47°17' W 001°53'0 0.0
2018-Jun-16 09:01N 47°17' W 001°53'0 0.0
2018-Jun-16 08:30N 47°17' W 001°53'0 0.0
2018-Jun-16 08:01N 47°17' W 001°53'0 0.0
2018-Jun-16 07:31N 47°17' W 001°53'0 0.0
2018-Jun-16 07:00N 47°17' W 001°53'2 3.5
2018-Jun-16 06:31N 47°17' W 001°56'3 6.4
2018-Jun-16 06:01N 47°17' W 002°01'4 7.0
2018-Jun-16 05:30N 47°18' W 002°06'3 6.0
2018-Jun-16 05:01N 47°17' W 002°10'0 0.0
2018-Jun-16 04:30N 47°17' W 002°10'0 0.0
2018-Jun-16 04:00N 47°17' W 002°10'0 0.0
2018-Jun-16 03:30N 47°17' W 002°10'0 0.0
2018-Jun-16 03:01N 47°17' W 002°10'0 0.0
2018-Jun-16 02:30N 47°17' W 002°10'0 0.0
2018-Jun-16 02:00N 47°17' W 002°10'0 0.0
2018-Jun-16 01:30N 47°17' W 002°10'0 0.0
2018-Jun-16 01:00N 47°17' W 002°10'0 0.0
2018-Jun-16 00:31N 47°17' W 002°10'0 0.0
2018-Jun-16 00:00N 47°17' W 002°10'0 0.0
2018-Jun-15 23:31N 47°17' W 002°10'0 0.0
2018-Jun-15 23:00N 47°17' W 002°10'0 0.0
2018-Jun-15 22:30N 47°17' W 002°10'0 0.0
2018-Jun-15 22:01N 47°17' W 002°10'0 0.0
2018-Jun-15 21:31N 47°17' W 002°10'0 0.0
2018-Jun-15 21:00N 47°17' W 002°10'0 0.0
2018-Jun-15 20:30N 47°17' W 002°10'1 1.3
2018-Jun-15 20:00N 47°18' W 002°09'3 6.5
2018-Jun-15 19:30N 47°18' W 002°04'4 7.9
2018-Jun-15 19:01N 47°17' W 001°59'4 7.2
2018-Jun-15 18:31N 47°17' W 001°54'0 0.2
2018-Jun-15 18:00N 47°17' W 001°53'0 0.0
2018-Jun-15 16:04N 47°17' W 001°53'0 0.0
2018-Jun-15 15:49N 47°17' W 001°53'0 0.0
2018-Jun-15 15:29N 47°17' W 001°53'0 0.0
2018-Jun-15 15:00N 47°17' W 001°53'0 0.0
2018-Jun-15 14:30N 47°17' W 001°53'0 0.0
2018-Jun-15 14:01N 47°17' W 001°53'  
Track history (hours):
 
Tides and Currents Weather Stations Pressure Air Temp Water Temp Dewpoint Dewpoint Depression Visibility Wind Speed Wind Dir Waves Ship Positions

Intraitable

Last reported at 2018-Jun-25 14:00 UTC. Time now 2018-Jun-25 14:16 UTC.
Position N 47°12' W 001°37'.

Length 130 m.

Type: Cargo ship. MMSI: 226002760.

Date/timePositionNaut miles runAvg speedWind from/ knotsBaromVisibWave heightAir tempDewpointWater temp
2018-Jun-25 14:00N 47°12' W 001°37'0 0.0
2018-Jun-25 13:30N 47°12' W 001°37'0 0.0
2018-Jun-25 12:59N 47°12' W 001°37'0 0.1
2018-Jun-25 12:30N 47°12' W 001°37'4 7.5
2018-Jun-25 12:00N 47°12' W 001°42'4 8.0
2018-Jun-25 11:30N 47°13' W 001°48'4 7.9
2018-Jun-25 11:00N 47°16' W 001°52'2 3.0
2018-Jun-25 10:30N 47°17' W 001°53'0 0.0
2018-Jun-25 10:00N 47°17' W 001°53'0 0.1
2018-Jun-25 09:29N 47°17' W 001°53'0 0.0
2018-Jun-23 09:55N 47°17' W 001°53'0 0.3
2018-Jun-23 09:30N 47°17' W 001°53'1 1.5
2018-Jun-23 09:01N 47°17' W 001°55'4 7.9
2018-Jun-23 08:30N 47°17' W 002°00'4 7.6
2018-Jun-23 08:01N 47°18' W 002°06'3 5.7
2018-Jun-23 07:29N 47°17' W 002°10'0 0.0
2018-Jun-23 06:56N 47°17' W 002°10'0 0.0
2018-Jun-23 06:30N 47°17' W 002°10'0 0.0
2018-Jun-23 06:00N 47°17' W 002°10'0 0.0
2018-Jun-23 05:29N 47°17' W 002°10'0 0.0
2018-Jun-23 05:00N 47°17' W 002°10'0 0.0
2018-Jun-23 04:30N 47°17' W 002°10'0 0.0
2018-Jun-23 04:00N 47°17' W 002°10'0 0.0
2018-Jun-23 03:30N 47°17' W 002°10'0 0.0
2018-Jun-23 03:00N 47°17' W 002°10'0 0.0
2018-Jun-23 02:30N 47°17' W 002°10'0 0.0
2018-Jun-23 02:00N 47°17' W 002°10'0 0.0
2018-Jun-23 01:30N 47°17' W 002°10'0 0.0
2018-Jun-23 01:00N 47°17' W 002°10'0 0.0
2018-Jun-23 00:30N 47°17' W 002°10'0 0.0
2018-Jun-23 00:00N 47°17' W 002°10'0 0.0
2018-Jun-22 23:30N 47°17' W 002°10'0 0.0
2018-Jun-22 23:00N 47°17' W 002°10'0 0.0
2018-Jun-22 22:30N 47°17' W 002°10'0 0.0
2018-Jun-22 22:00N 47°17' W 002°10'0 0.0
2018-Jun-22 21:30N 47°17' W 002°10'0 0.0
2018-Jun-22 21:00N 47°17' W 002°10'0 0.0
2018-Jun-22 20:30N 47°17' W 002°10'0 0.0
2018-Jun-22 20:00N 47°17' W 002°10'0 0.0
2018-Jun-22 19:30N 47°17' W 002°10'0 0.0
2018-Jun-22 19:00N 47°17' W 002°10'0 0.0
2018-Jun-22 18:30N 47°17' W 002°10'0 0.0
2018-Jun-22 18:00N 47°17' W 002°10'0 0.0
2018-Jun-22 17:30N 47°17' W 002°10'0 0.0
2018-Jun-22 17:00N 47°17' W 002°10'0 1.0
2018-Jun-22 16:30N 47°18' W 002°09'5 9.5
2018-Jun-22 16:01N 47°18' W 002°02'5 9.4
2018-Jun-22 15:30N 47°17' W 001°56'4 8.3
2018-Jun-22 15:01N 47°15' W 001°51'4 7.5
2018-Jun-22 14:30N 47°12' W 001°46'4 7.6
2018-Jun-22 14:00N 47°12' W 001°41'3 5.3
2018-Jun-22 13:30N 47°12' W 001°37'0 0.1
2018-Jun-22 13:01N 47°12' W 001°37'0 0.0
2018-Jun-22 12:30N 47°12' W 001°37'0 0.0
2018-Jun-22 12:00N 47°12' W 001°37'0 0.0
2018-Jun-22 11:30N 47°12' W 001°37'0 0.0
2018-Jun-22 11:00N 47°12' W 001°37'0 0.0
2018-Jun-22 10:30N 47°12' W 001°37'0 0.1
2018-Jun-22 10:01N 47°12' W 001°37'4 7.3
2018-Jun-22 09:30N 47°12' W 001°42'4 7.6
2018-Jun-22 08:59N 47°13' W 001°48'4 7.8
2018-Jun-22 08:31N 47°16' W 001°51'2 3.6
2018-Jun-22 08:00N 47°17' W 001°53'0 0.0
2018-Jun-22 07:31N 47°17' W 001°53'0 0.0
2018-Jun-22 07:00N 47°17' W 001°53'0 0.0
2018-Jun-22 06:29N 47°17' W 001°53'0 0.0
2018-Jun-22 06:00N 47°17' W 001°53'0 0.0
2018-Jun-22 05:31N 47°17' W 001°53'0 0.0
2018-Jun-22 05:00N 47°17' W 001°53'0 0.0
2018-Jun-22 04:30N 47°17' W 001°53'0 0.0
2018-Jun-22 04:01N 47°17' W 001°53'0 0.0
2018-Jun-22 03:31N 47°17' W 001°53'0 0.0
2018-Jun-22 03:00N 47°17' W 001°53'0 0.0
2018-Jun-22 02:30N 47°17' W 001°53'0 0.0
2018-Jun-22 02:00N 47°17' W 001°53'0 0.0
2018-Jun-22 01:30N 47°17' W 001°53'0 0.0
2018-Jun-22 01:00N 47°17' W 001°53'0 0.0
2018-Jun-22 00:30N 47°17' W 001°53'0 0.0
2018-Jun-22 00:00N 47°17' W 001°53'0 0.0
2018-Jun-21 23:30N 47°17' W 001°53'0 0.0
2018-Jun-21 23:00N 47°17' W 001°53'0 0.0
2018-Jun-21 22:30N 47°17' W 001°53'0 0.0
2018-Jun-21 22:01N 47°17' W 001°53'0 0.0
2018-Jun-21 21:31N 47°17' W 001°53'0 0.0
2018-Jun-21 21:00N 47°17' W 001°53'0 0.0
2018-Jun-21 20:31N 47°17' W 001°53'0 0.0
2018-Jun-21 20:00N 47°17' W 001°53'0 0.0
2018-Jun-21 19:30N 47°17' W 001°53'0 0.0
2018-Jun-21 19:01N 47°17' W 001°53'0 0.0
2018-Jun-21 18:31N 47°17' W 001°53'0 0.0
2018-Jun-21 18:00N 47°17' W 001°53'0 0.0
2018-Jun-21 17:30N 47°17' W 001°53'0 0.0
2018-Jun-21 17:00N 47°17' W 001°53'0 0.0
2018-Jun-21 16:31N 47°17' W 001°53'0 0.0
2018-Jun-21 16:00N 47°17' W 001°53'0 0.0
2018-Jun-21 15:30N 47°17' W 001°53'0 0.0
2018-Jun-21 15:00N 47°17' W 001°53'0 0.0
2018-Jun-21 14:31N 47°17' W 001°53'0 0.0
2018-Jun-21 14:01N 47°17' W 001°53'0 0.0
2018-Jun-21 13:29N 47°17' W 001°53'0 0.0
2018-Jun-21 13:00N 47°17' W 001°53'0 0.0
2018-Jun-21 12:30N 47°17' W 001°53'0 0.0
2018-Jun-21 11:59N 47°17' W 001°53'0 0.0
2018-Jun-21 11:30N 47°17' W 001°53'0 0.0
2018-Jun-21 11:00N 47°17' W 001°53'0 0.0
2018-Jun-21 10:30N 47°17' W 001°53'0 0.0
2018-Jun-21 10:00N 47°17' W 001°53'0 0.0
2018-Jun-21 09:28N 47°17' W 001°53'0 0.0
2018-Jun-21 09:01N 47°17' W 001°53'0 0.0
2018-Jun-21 08:31N 47°17' W 001°53'0 0.0
2018-Jun-21 08:01N 47°17' W 001°53'0 0.0
2018-Jun-21 07:31N 47°17' W 001°53'1 2.1
2018-Jun-21 07:00N 47°17' W 001°55'3 6.7
2018-Jun-21 06:30N 47°17' W 001°60'2 3.8
2018-Jun-21 06:00N 47°18' W 002°03'3 7.0
2018-Jun-21 05:30N 47°18' W 002°08'2 3.7
2018-Jun-21 05:00N 47°17' W 002°10'0 0.0
2018-Jun-21 04:30N 47°17' W 002°10'0 0.0
2018-Jun-21 04:00N 47°17' W 002°10'0 0.0
2018-Jun-21 03:30N 47°17' W 002°10'0 0.0
2018-Jun-21 03:00N 47°17' W 002°10'0 0.0
2018-Jun-21 02:30N 47°17' W 002°10'0 0.0
2018-Jun-21 02:00N 47°17' W 002°10'0 0.0
2018-Jun-21 01:31N 47°17' W 002°10'0 0.0
2018-Jun-21 01:01N 47°17' W 002°10'0 0.0
2018-Jun-21 00:31N 47°17' W 002°10'0 0.0
2018-Jun-21 00:01N 47°17' W 002°10'0 0.0
2018-Jun-20 23:31N 47°17' W 002°10'0 0.0
2018-Jun-20 23:01N 47°17' W 002°10'0 0.0
2018-Jun-20 22:31N 47°17' W 002°10'0 0.0
2018-Jun-20 22:00N 47°17' W 002°10'0 0.0
2018-Jun-20 21:31N 47°17' W 002°10'0 0.0
2018-Jun-20 21:01N 47°17' W 002°10'0 0.0
2018-Jun-20 20:30N 47°17' W 002°10'0 0.0
2018-Jun-20 20:00N 47°17' W 002°10'0 0.0
2018-Jun-20 19:30N 47°17' W 002°10'0 0.0
2018-Jun-20 19:00N 47°17' W 002°10'0 0.0
2018-Jun-20 18:30N 47°17' W 002°10'0 0.0
2018-Jun-20 18:00N 47°17' W 002°10'0 0.0
2018-Jun-20 17:30N 47°17' W 002°10'0 0.0
2018-Jun-20 17:00N 47°17' W 002°10'2 3.0
2018-Jun-20 16:30N 47°18' W 002°08'3 6.6
2018-Jun-20 16:01N 47°18' W 002°03'5 8.5
2018-Jun-20 15:24N 47°17' W 001°56'3 8.3
2018-Jun-20 15:00N 47°16' W 001°51'4 8.2
2018-Jun-20 14:31N 47°13' W 001°48'4 8.3
2018-Jun-20 14:00N 47°12' W 001°41'3 6.2
2018-Jun-20 13:28N 47°12' W 001°37'0 0.0
2018-Jun-20 13:00N 47°12' W 001°37'0 0.0
2018-Jun-20 12:30N 47°12' W 001°37'0 0.0
2018-Jun-20 12:00N 47°12' W 001°37'0 0.0
2018-Jun-20 11:30N 47°12' W 001°37'0 0.0
2018-Jun-20 10:58N 47°12' W 001°37'0 0.0
2018-Jun-20 10:31N 47°12' W 001°37'0 0.0
2018-Jun-20 10:00N 47°12' W 001°37'0 0.0
2018-Jun-20 09:30N 47°12' W 001°37'0 0.0
2018-Jun-20 09:00N 47°12' W 001°37'2 2.7
2018-Jun-20 08:26N 47°11' W 001°39'3 6.3
2018-Jun-20 08:00N 47°12' W 001°43'3 6.8
2018-Jun-20 07:31N 47°13' W 001°48'3 6.8
2018-Jun-20 07:01N 47°15' W 001°51'4 7.1
2018-Jun-20 06:30N 47°17' W 001°56'4 7.9
2018-Jun-20 06:01N 47°18' W 002°01'4 7.5
2018-Jun-20 05:30N 47°18' W 002°07'2 4.7
2018-Jun-20 04:59N 47°17' W 002°10'0 0.0
2018-Jun-20 04:30N 47°17' W 002°10'0 0.0
2018-Jun-20 04:00N 47°17' W 002°10'0 0.0
2018-Jun-20 03:30N 47°17' W 002°10'0 0.0
2018-Jun-20 03:00N 47°17' W 002°10'0 0.0
2018-Jun-20 02:31N 47°17' W 002°10'0 0.0
2018-Jun-20 02:00N 47°17' W 002°10'0 0.0
2018-Jun-20 01:31N 47°17' W 002°10'0 0.0
2018-Jun-20 01:01N 47°17' W 002°10'0 0.0
2018-Jun-20 00:30N 47°17' W 002°10'0 0.0
2018-Jun-20 00:00N 47°17' W 002°10'0 0.0
2018-Jun-19 23:31N 47°17' W 002°10'0 0.0
2018-Jun-19 23:00N 47°17' W 002°10'0 0.0
2018-Jun-19 22:31N 47°17' W 002°10'0 0.0
2018-Jun-19 22:00N 47°17' W 002°10'0 0.0
2018-Jun-19 21:31N 47°17' W 002°10'0 0.0
2018-Jun-19 21:01N 47°17' W 002°10'0 0.0
2018-Jun-19 20:30N 47°17' W 002°10'0 0.0
2018-Jun-19 20:01N 47°17' W 002°10'0 0.0
2018-Jun-19 19:30N 47°17' W 002°10'0 0.0
2018-Jun-19 19:01N 47°17' W 002°10'0 0.0
2018-Jun-19 18:31N 47°17' W 002°10'0 0.0
2018-Jun-19 18:00N 47°17' W 002°10'0 0.0
2018-Jun-19 17:30N 47°17' W 002°10'0 0.0
2018-Jun-19 17:00N 47°17' W 002°10'0 0.0
2018-Jun-19 16:30N 47°17' W 002°10'2 4.3
2018-Jun-19 15:58N 47°18' W 002°07'3 6.1
2018-Jun-19 15:29N 47°18' W 002°03'4 7.9
2018-Jun-19 15:00N 47°17' W 001°57'4 8.2
2018-Jun-19 14:29N 47°16' W 001°51'4 8.4
2018-Jun-19 14:00N 47°13' W 001°47'4 8.5
2018-Jun-19 13:30N 47°12' W 001°41'3 6.3
2018-Jun-19 13:00N 47°12' W 001°37'0 0.0
2018-Jun-19 12:31N 47°12' W 001°37'0 0.0
2018-Jun-19 12:00N 47°12' W 001°37'0 0.0
2018-Jun-19 11:30N 47°12' W 001°37'0 0.0
2018-Jun-19 11:00N 47°12' W 001°37'0 0.0
2018-Jun-19 10:31N 47°12' W 001°37'0 0.0
2018-Jun-19 10:00N 47°12' W 001°37'0 0.0
2018-Jun-19 09:30N 47°12' W 001°37'1 2.2
2018-Jun-19 09:00N 47°12' W 001°38'2 4.4
2018-Jun-19 08:31N 47°12' W 001°41'3 5.0
2018-Jun-19 08:00N 47°12' W 001°45'3 5.9
2018-Jun-19 07:30N 47°13' W 001°49'3 6.2
2018-Jun-19 07:00N 47°16' W 001°52'3 6.8
2018-Jun-19 06:31N 47°17' W 001°56'4 7.1
2018-Jun-19 06:00N 47°18' W 002°01'4 7.6
2018-Jun-19 05:30N 47°18' W 002°07'2 4.3
2018-Jun-19 05:01N 47°17' W 002°10'0 0.0
2018-Jun-19 04:30N 47°17' W 002°10'0 0.0
2018-Jun-19 04:01N 47°17' W 002°10'0 0.0
2018-Jun-19 03:30N 47°17' W 002°10'0 0.0
2018-Jun-19 03:00N 47°17' W 002°10'0 0.0
2018-Jun-19 02:30N 47°17' W 002°10'0 0.0
2018-Jun-19 02:00N 47°17' W 002°10'0 0.0
2018-Jun-19 01:31N 47°17' W 002°10'0 0.0
2018-Jun-19 01:00N 47°17' W 002°10'0 0.0
2018-Jun-19 00:30N 47°17' W 002°10'0 0.0
2018-Jun-19 00:01N 47°17' W 002°10'0 0.0
2018-Jun-18 23:31N 47°17' W 002°10'0 0.0
2018-Jun-18 23:01N 47°17' W 002°10'0 0.0
2018-Jun-18 22:31N 47°17' W 002°10'0 0.0
2018-Jun-18 22:01N 47°17' W 002°10'0 0.0
2018-Jun-18 21:30N 47°17' W 002°10'0 0.0
2018-Jun-18 21:01N 47°17' W 002°10'0 0.0
2018-Jun-18 20:31N 47°17' W 002°10'0 0.0
2018-Jun-18 20:00N 47°17' W 002°10'0 0.0
2018-Jun-18 19:30N 47°17' W 002°10'0 0.0
2018-Jun-18 19:00N 47°17' W 002°10'0 0.0
2018-Jun-18 18:30N 47°17' W 002°10'0 0.0
2018-Jun-18 18:00N 47°17' W 002°10'0 0.0
2018-Jun-18 17:31N 47°17' W 002°10'0 0.0
2018-Jun-18 17:01N 47°17' W 002°10'2 3.9
2018-Jun-18 16:31N 47°18' W 002°07'2 4.5
2018-Jun-18 16:00N 47°18' W 002°04'3 5.3
2018-Jun-18 15:30N 47°17' W 002°00'4 7.2
2018-Jun-18 15:01N 47°17' W 001°55'4 8.6
2018-Jun-18 14:31N 47°14' W 001°50'5 9.3
2018-Jun-18 14:00N 47°12' W 001°44'5 9.5
2018-Jun-18 13:30N 47°12' W 001°37'0 0.4
2018-Jun-18 13:00N 47°12' W 001°37'0 0.0
2018-Jun-18 12:30N 47°12' W 001°37'0 0.0
2018-Jun-18 12:00N 47°12' W 001°37'0 0.0
2018-Jun-18 11:30N 47°12' W 001°37'0 0.0
2018-Jun-18 11:01N 47°12' W 001°37'0 0.0
2018-Jun-18 10:30N 47°12' W 001°37'0 0.0
2018-Jun-18 10:00N 47°12' W 001°37'0 0.0
2018-Jun-18 09:30N 47°12' W 001°37'0 0.0
2018-Jun-18 09:01N 47°12' W 001°37'0 0.0
2018-Jun-18 08:30N 47°12' W 001°37'0 0.0
2018-Jun-18 08:01N 47°12' W 001°37'0 0.0
2018-Jun-18 07:31N 47°12' W 001°37'0 0.0
2018-Jun-18 07:00N 47°12' W 001°37'0 0.0
2018-Jun-18 06:30N 47°12' W 001°37'0 0.0
2018-Jun-18 06:01N 47°12' W 001°37'0 0.0
2018-Jun-18 05:31N 47°12' W 001°37'0 0.0
2018-Jun-18 05:01N 47°12' W 001°37'0 0.0
2018-Jun-18 04:30N 47°12' W 001°37'0 0.0
2018-Jun-18 04:01N 47°12' W 001°37'0 0.0
2018-Jun-18 03:31N 47°12' W 001°37'0 0.0
2018-Jun-18 03:00N 47°12' W 001°37'0 0.0
2018-Jun-18 02:31N 47°12' W 001°37'0 0.0
2018-Jun-18 02:01N 47°12' W 001°37'0 0.0
2018-Jun-18 01:30N 47°12' W 001°37'0 0.0
2018-Jun-18 00:59N 47°12' W 001°37'0 0.0
2018-Jun-18 00:30N 47°12' W 001°37'0 0.0
2018-Jun-18 00:00N 47°12' W 001°37'0 0.0
2018-Jun-17 23:31N 47°12' W 001°37'0 0.0
2018-Jun-17 23:00N 47°12' W 001°37'0 0.0
2018-Jun-17 22:31N 47°12' W 001°37'0 0.0
2018-Jun-17 22:00N 47°12' W 001°37'0 0.0
2018-Jun-17 21:30N 47°12' W 001°37'0 0.0
2018-Jun-17 21:00N 47°12' W 001°37'0 0.0
2018-Jun-17 20:31N 47°12' W 001°37'0 0.0
2018-Jun-17 20:01N 47°12' W 001°37'0 0.0
2018-Jun-17 19:30N 47°12' W 001°37'0 0.0
2018-Jun-17 19:01N 47°12' W 001°37'0 0.0
2018-Jun-17 18:31N 47°12' W 001°37'0 0.0
2018-Jun-17 18:00N 47°12' W 001°37'0 0.0
2018-Jun-17 17:30N 47°12' W 001°37'0 0.0
2018-Jun-17 17:00N 47°12' W 001°37'2 4.6
2018-Jun-17 16:31N 47°12' W 001°40'4 7.4
2018-Jun-17 16:00N 47°12' W 001°45'4 7.3
2018-Jun-17 15:30N 47°14' W 001°50'3 6.4
2018-Jun-17 15:00N 47°16' W 001°53'0 0.6
2018-Jun-17 14:30N 47°17' W 001°53'0 0.0
2018-Jun-17 14:00N 47°17' W 001°53'0 0.0
2018-Jun-17 13:30N 47°17' W 001°53'0 0.0
2018-Jun-17 13:00N 47°17' W 001°53'0 0.0
2018-Jun-17 12:31N 47°17' W 001°53'0 0.0
2018-Jun-17 12:00N 47°17' W 001°53'0 0.0
2018-Jun-17 11:31N 47°17' W 001°53'0 0.0
2018-Jun-17 11:01N 47°17' W 001°53'0 0.0
2018-Jun-17 10:30N 47°17' W 001°53'0 0.0
2018-Jun-17 10:00N 47°17' W 001°53'0 0.0
2018-Jun-17 09:30N 47°17' W 001°53'0 0.0
2018-Jun-17 09:00N 47°17' W 001°53'0 0.0
2018-Jun-17 08:30N 47°17' W 001°53'0 0.0
2018-Jun-17 07:25N 47°17' W 001°53'0 0.0
2018-Jun-17 07:01N 47°17' W 001°53'0 0.0
2018-Jun-17 06:31N 47°17' W 001°53'0 0.0
2018-Jun-17 06:00N 47°17' W 001°53'0 0.0
2018-Jun-17 05:30N 47°17' W 001°53'0 0.0
2018-Jun-17 05:01N 47°17' W 001°53'0 0.0
2018-Jun-17 04:31N 47°17' W 001°53'0 0.0
2018-Jun-17 04:01N 47°17' W 001°53'0 0.0
2018-Jun-17 03:31N 47°17' W 001°53'0 0.0
2018-Jun-17 03:01N 47°17' W 001°53'0 0.0
2018-Jun-17 02:30N 47°17' W 001°53'0 0.0
2018-Jun-17 02:01N 47°17' W 001°53'0 0.0
2018-Jun-17 01:30N 47°17' W 001°53'0 0.0
2018-Jun-17 01:01N 47°17' W 001°53'0 0.0
2018-Jun-17 00:30N 47°17' W 001°53'0 0.0
2018-Jun-17 00:01N 47°17' W 001°53'0 0.0
2018-Jun-16 23:31N 47°17' W 001°53'0 0.0
2018-Jun-16 23:01N 47°17' W 001°53'0 0.0
2018-Jun-16 22:31N 47°17' W 001°53'0 0.0
2018-Jun-16 22:00N 47°17' W 001°53'0 0.0
2018-Jun-16 21:31N 47°17' W 001°53'0 0.0
2018-Jun-16 21:00N 47°17' W 001°53'0 0.0
2018-Jun-16 20:30N 47°17' W 001°53'0 0.0
2018-Jun-16 20:01N 47°17' W 001°53'0 0.0
2018-Jun-16 19:31N 47°17' W 001°53'0 0.0
2018-Jun-16 19:01N 47°17' W 001°53'0 0.0
2018-Jun-16 18:30N 47°17' W 001°53'0 0.0
2018-Jun-16 18:00N 47°17' W 001°53'0 0.0
2018-Jun-16 17:30N 47°17' W 001°53'0 0.0
2018-Jun-16 17:00N 47°17' W 001°53'0 0.0
2018-Jun-16 16:30N 47°17' W 001°53'0 0.0
2018-Jun-16 16:01N 47°17' W 001°53'0 0.0
2018-Jun-16 15:30N 47°17' W 001°53'0 0.0
2018-Jun-16 15:00N 47°17' W 001°53'0 0.0
2018-Jun-16 14:30N 47°17' W 001°53'0 0.0
2018-Jun-16 14:01N 47°17' W 001°53'0 0.1
2018-Jun-16 13:30N 47°17' W 001°53'0 0.0
2018-Jun-16 13:00N 47°17' W 001°53'0 0.0
2018-Jun-16 12:30N 47°17' W 001°53'0 0.0
2018-Jun-16 12:00N 47°17' W 001°53'0 0.0
2018-Jun-16 11:30N 47°17' W 001°53'0 0.0
2018-Jun-16 11:00N 47°17' W 001°53'0 0.0
2018-Jun-16 10:31N 47°17' W 001°53'0 0.0
2018-Jun-16 10:00N 47°17' W 001°53'0 0.0
2018-Jun-16 09:30N 47°17' W 001°53'0 0.0
2018-Jun-16 09:01N 47°17' W 001°53'0 0.0
2018-Jun-16 08:30N 47°17' W 001°53'0 0.0
2018-Jun-16 08:01N 47°17' W 001°53'0 0.0
2018-Jun-16 07:31N 47°17' W 001°53'0 0.0
2018-Jun-16 07:00N 47°17' W 001°53'2 3.5
2018-Jun-16 06:31N 47°17' W 001°56'3 6.4
2018-Jun-16 06:01N 47°17' W 002°01'4 7.0
2018-Jun-16 05:30N 47°18' W 002°06'3 6.0
2018-Jun-16 05:01N 47°17' W 002°10'0 0.0
2018-Jun-16 04:30N 47°17' W 002°10'0 0.0
2018-Jun-16 04:00N 47°17' W 002°10'0 0.0
2018-Jun-16 03:30N 47°17' W 002°10'0 0.0
2018-Jun-16 03:01N 47°17' W 002°10'0 0.0
2018-Jun-16 02:30N 47°17' W 002°10'0 0.0
2018-Jun-16 02:00N 47°17' W 002°10'0 0.0
2018-Jun-16 01:30N 47°17' W 002°10'0 0.0
2018-Jun-16 01:00N 47°17' W 002°10'0 0.0
2018-Jun-16 00:31N 47°17' W 002°10'0 0.0
2018-Jun-16 00:00N 47°17' W 002°10'0 0.0
2018-Jun-15 23:31N 47°17' W 002°10'0 0.0
2018-Jun-15 23:00N 47°17' W 002°10'0 0.0
2018-Jun-15 22:30N 47°17' W 002°10'0 0.0
2018-Jun-15 22:01N 47°17' W 002°10'0 0.0
2018-Jun-15 21:31N 47°17' W 002°10'0 0.0
2018-Jun-15 21:00N 47°17' W 002°10'0 0.0
2018-Jun-15 20:30N 47°17' W 002°10'1 1.3
2018-Jun-15 20:00N 47°18' W 002°09'3 6.5
2018-Jun-15 19:30N 47°18' W 002°04'4 7.9
2018-Jun-15 19:01N 47°17' W 001°59'4 7.2
2018-Jun-15 18:31N 47°17' W 001°54'0 0.2
2018-Jun-15 18:00N 47°17' W 001°53'0 0.0
2018-Jun-15 16:04N 47°17' W 001°53'0 0.0
2018-Jun-15 15:49N 47°17' W 001°53'0 0.0
2018-Jun-15 15:29N 47°17' W 001°53'0 0.0
2018-Jun-15 15:00N 47°17' W 001°53'0 0.0
2018-Jun-15 14:30N 47°17' W 001°53'0 0.0
2018-Jun-15 14:01N 47°17' W 001°53'  

Dump ship's entire track history